Terminal Aerodrome Forecast
Issued by NWS Birmingham, AL

Home | Current Version | Previous Version | Text Only | Print | Product List | Glossary On
Versions: 1 2 3 4 5 6 7 8 9 10 11 12 13
000
FTUS44 KBMX 300500
TAFBHM
TAF
KBHM 300523Z 3006/3106 34012G20KT P6SM BKN030
     FM300900 35012KT P6SM BKN035
     FM301300 36012KT P6SM SCT025 BKN250
     FM310000 01005KT P6SM BKN200=

USA.gov is the U.S. government's official web portal to all federal, state and local government web resources and services.